This is the latest recevied weather packets stored in our database for station/object KJ5MET. If no packets are shown the sender has not sent any weather packets the latest 10 day(s).
| Time | Temp. | Humidity | Pressure | Rain* | Wind** | Luminosity | Snow |
|---|---|---|---|---|---|---|---|
| 1787871087 | 31.11° C | 74% | 1011.2 hPa | 0 mm | - | - | - |
| 1787870654 | 31.11° C | 75% | 1011.2 hPa | 0 mm | - | - | - |
| 1787870337 | 31.11° C | 73% | 1011.2 hPa | 0 mm | - | - | - |
| 1787869980 | 31.11° C | 74% | 1011.2 hPa | 0 mm | - | - | - |
| 1787869652 | 31.11° C | 74% | 1011.2 hPa | 0 mm | - | - | - |
| 1787869322 | 31.11° C | 75% | 1011.2 hPa | 0 mm | - | - | - |
| 1787868930 | 32.22° C | 71% | 1011.2 hPa | 0 mm | - | - | - |
| 1787868599 | 31.67° C | 74% | 1011.2 hPa | 0 mm | - | - | - |
| 1787868246 | 31.11° C | 75% | 1011.2 hPa | 0 mm | - | - | - |
| 1787867899 | 31.11° C | 75% | 1011.2 hPa | 0 mm | - | - | - |
| 1787867556 | 30.56° C | 79% | 1011.2 hPa | 0 mm | - | - | - |
| 1787867252 | 30.56° C | 78% | 1011.2 hPa | 0 mm | - | - | - |
| 1787866888 | 30.56° C | 77% | 1011.2 hPa | 0 mm | - | - | - |
| 1787866581 | 31.11° C | 76% | 1011.5 hPa | 0 mm | - | - | - |
| 1787866200 | 31.11° C | 78% | 1011.5 hPa | 0 mm | - | - | - |
| 1787865858 | 30.56° C | 77% | 1011.5 hPa | 0 mm | - | - | - |
| 1787865552 | 30.56° C | 79% | 1011.5 hPa | 0 mm | - | - | - |
| 1787865224 | 30° C | 81% | 1011.5 hPa | 0 mm | - | - | - |
| 1787864913 | 30° C | 80% | 1011.9 hPa | 0 mm | - | - | - |
| 1787864596 | 30° C | 79% | 1011.9 hPa | 0 mm | - | - | - |
| 1787864277 | 31.11° C | 74% | 1012.2 hPa | 0 mm | - | - | - |
| 1787863963 | 30° C | 78% | 1012.2 hPa | 0 mm | - | - | - |
| 1787863662 | 30° C | 79% | 1012.2 hPa | 0 mm | - | - | - |
| 1787863366 | 30.56° C | 77% | 1012.2 hPa | 0 mm | - | - | - |
| 1787862968 | 31.11° C | 76% | 1012.2 hPa | 0 mm | - | - | - |
* Rain latest hour (hover to see other rain measurements)
** Current wind speed in m/s (hover to see current wind gust speed)